<?xml version="1.0" encoding="UTF-8" standalone="no" ?>
<gpx xmlns="http://www.topografix.com/GPX/1/1" xmlns:xsi="http://www.w3.org/2001/XMLSchema-instance" xsi:schemaLocation="http://www.topografix.com/GPX/1/1 http://www.topografix.com/GPX/1/1/gpx.xsd" version="1.1" creator="VisuGPX - https://www.visugpx.com">
  <metadata>
    <name>Extreme-Loue-40-600</name>
    <desc><![CDATA[Boucle au départ de Vuillafans - Extreme Loue - 40 km - D+ 600 m]]></desc>
  </metadata>
  <trk>
    <name><![CDATA[Extreme-Loue-40-600]]></name>
    <trkseg>
      <trkpt lat="47.06856" lon="6.2049">
        <ele>348.147858</ele>
      </trkpt>
      <trkpt lat="47.0692" lon="6.20461">
        <ele>345.266266</ele>
      </trkpt>
      <trkpt lat="47.07013" lon="6.20413">
        <ele>346.427338</ele>
        <time>2020-08-22T09:37:03Z</time>
      </trkpt>
      <trkpt lat="47.07093" lon="6.20366">
        <ele>346.579498</ele>
        <time>2020-08-22T09:37:23Z</time>
      </trkpt>
      <trkpt lat="47.07158" lon="6.20288">
        <ele>345.79895</ele>
        <time>2020-08-22T09:37:42Z</time>
      </trkpt>
      <trkpt lat="47.07194" lon="6.20193">
        <ele>343.0448</ele>
        <time>2020-08-22T09:38:00Z</time>
      </trkpt>
      <trkpt lat="47.07221" lon="6.20039">
        <ele>340.27774</ele>
        <time>2020-08-22T09:38:25Z</time>
      </trkpt>
      <trkpt lat="47.07245" lon="6.19831">
        <ele>340.957825</ele>
        <time>2020-08-22T09:38:59Z</time>
      </trkpt>
      <trkpt lat="47.0726" lon="6.1964">
        <ele>343.150482</ele>
        <time>2020-08-22T09:39:29Z</time>
      </trkpt>
      <trkpt lat="47.07289" lon="6.19462">
        <ele>345.583099</ele>
        <time>2020-08-22T09:39:58Z</time>
      </trkpt>
      <trkpt lat="47.07303" lon="6.19353">
        <ele>343.439392</ele>
        <time>2020-08-22T09:40:16Z</time>
      </trkpt>
      <trkpt lat="47.0728" lon="6.1925">
        <ele>346.781799</ele>
        <time>2020-08-22T09:40:33Z</time>
      </trkpt>
      <trkpt lat="47.07345" lon="6.19083">
        <ele>347.51413</ele>
        <time>2020-08-22T09:41:04Z</time>
      </trkpt>
      <trkpt lat="47.07439" lon="6.1897">
        <ele>346.789185</ele>
        <time>2020-08-22T09:41:32Z</time>
      </trkpt>
      <trkpt lat="47.0753" lon="6.18855">
        <ele>345.635651</ele>
        <time>2020-08-22T09:42:00Z</time>
      </trkpt>
      <trkpt lat="47.07598" lon="6.18759">
        <ele>347.631348</ele>
        <time>2020-08-22T09:42:22Z</time>
      </trkpt>
      <trkpt lat="47.07691" lon="6.18707">
        <ele>348.019989</ele>
        <time>2020-08-22T09:42:45Z</time>
      </trkpt>
      <trkpt lat="47.07799" lon="6.18675">
        <ele>346.279449</ele>
        <time>2020-08-22T09:43:11Z</time>
      </trkpt>
      <trkpt lat="47.07912" lon="6.1865">
        <ele>345.516785</ele>
        <time>2020-08-22T09:43:38Z</time>
      </trkpt>
      <trkpt lat="47.07971" lon="6.18649">
        <ele>344.481506</ele>
        <time>2020-08-22T09:43:52Z</time>
      </trkpt>
      <trkpt lat="47.08025" lon="6.18637">
        <ele>342.704987</ele>
        <time>2020-08-22T09:44:04Z</time>
      </trkpt>
      <trkpt lat="47.08085" lon="6.18712">
        <ele>340.067505</ele>
        <time>2020-08-22T09:44:23Z</time>
      </trkpt>
      <trkpt lat="47.08126" lon="6.18824">
        <ele>341</ele>
        <time>2020-08-22T09:44:43Z</time>
      </trkpt>
      <trkpt lat="47.08133" lon="6.18933">
        <ele>341.090302</ele>
        <time>2020-08-22T09:45:00Z</time>
      </trkpt>
      <trkpt lat="47.08159" lon="6.19015">
        <ele>341.877197</ele>
        <time>2020-08-22T09:45:15Z</time>
      </trkpt>
      <trkpt lat="47.08244" lon="6.19011">
        <ele>341.098999</ele>
        <time>2020-08-22T09:45:35Z</time>
      </trkpt>
      <trkpt lat="47.08316" lon="6.19015">
        <ele>342.532501</ele>
        <time>2020-08-22T09:45:52Z</time>
      </trkpt>
      <trkpt lat="47.08373" lon="6.19037">
        <ele>344.651886</ele>
        <time>2020-08-22T09:46:05Z</time>
      </trkpt>
      <trkpt lat="47.08459" lon="6.18936">
        <ele>344.301514</ele>
        <time>2020-08-22T09:46:31Z</time>
      </trkpt>
      <trkpt lat="47.08525" lon="6.18886">
        <ele>346.489838</ele>
        <time>2020-08-22T09:46:48Z</time>
      </trkpt>
      <trkpt lat="47.08622" lon="6.1879">
        <ele>345.783722</ele>
        <time>2020-08-22T09:47:16Z</time>
      </trkpt>
      <trkpt lat="47.08744" lon="6.18723">
        <ele>345.436737</ele>
        <time>2020-08-22T09:47:46Z</time>
      </trkpt>
      <trkpt lat="47.0882" lon="6.18638">
        <ele>341.274994</ele>
        <time>2020-08-22T09:48:08Z</time>
      </trkpt>
      <trkpt lat="47.0892" lon="6.18628">
        <ele>342.929993</ele>
        <time>2020-08-22T09:48:32Z</time>
      </trkpt>
      <trkpt lat="47.08984" lon="6.18637">
        <ele>344.413788</ele>
        <time>2020-08-22T09:48:47Z</time>
      </trkpt>
      <trkpt lat="47.09099" lon="6.18462">
        <ele>345.986389</ele>
        <time>2020-08-22T09:49:25Z</time>
      </trkpt>
      <trkpt lat="47.09175" lon="6.18409">
        <ele>357.097504</ele>
        <time>2020-08-22T09:49:45Z</time>
      </trkpt>
      <trkpt lat="47.09241" lon="6.18332">
        <ele>360.596558</ele>
        <time>2020-08-22T09:50:05Z</time>
      </trkpt>
      <trkpt lat="47.09289" lon="6.18347">
        <ele>368.027466</ele>
        <time>2020-08-22T09:50:16Z</time>
      </trkpt>
      <trkpt lat="47.09417" lon="6.18227">
        <ele>369.932404</ele>
        <time>2020-08-22T09:50:52Z</time>
      </trkpt>
      <trkpt lat="47.09515" lon="6.1822">
        <ele>375.920013</ele>
        <time>2020-08-22T09:51:15Z</time>
      </trkpt>
      <trkpt lat="47.09611" lon="6.18207">
        <ele>371.921753</ele>
        <time>2020-08-22T09:51:37Z</time>
      </trkpt>
      <trkpt lat="47.09677" lon="6.18171">
        <ele>368.133759</ele>
        <time>2020-08-22T09:51:54Z</time>
      </trkpt>
      <trkpt lat="47.09793" lon="6.18156">
        <ele>368.54129</ele>
        <time>2020-08-22T09:52:21Z</time>
      </trkpt>
      <trkpt lat="47.09941" lon="6.18179">
        <ele>366.698792</ele>
        <time>2020-08-22T09:52:56Z</time>
      </trkpt>
      <trkpt lat="47.10072" lon="6.182">
        <ele>358.805237</ele>
        <time>2020-08-22T09:53:26Z</time>
      </trkpt>
      <trkpt lat="47.10157" lon="6.18259">
        <ele>358.748291</ele>
        <time>2020-08-22T09:53:48Z</time>
      </trkpt>
      <trkpt lat="47.10322" lon="6.18405">
        <ele>363.265289</ele>
        <time>2020-08-22T09:54:33Z</time>
      </trkpt>
      <trkpt lat="47.10576" lon="6.18534">
        <ele>360.479889</ele>
        <time>2020-08-22T09:55:36Z</time>
      </trkpt>
      <trkpt lat="47.10656" lon="6.18525">
        <ele>363.354736</ele>
        <time>2020-08-22T09:55:55Z</time>
      </trkpt>
      <trkpt lat="47.10455" lon="6.18393">
        <ele>361.265961</ele>
        <time>2020-08-22T09:56:46Z</time>
      </trkpt>
      <trkpt lat="47.10294" lon="6.18241">
        <ele>358.254059</ele>
        <time>2020-08-22T09:57:31Z</time>
      </trkpt>
      <trkpt lat="47.10178" lon="6.18113">
        <ele>355.707611</ele>
        <time>2020-08-22T09:58:05Z</time>
      </trkpt>
      <trkpt lat="47.10094" lon="6.1805">
        <ele>352.211731</ele>
        <time>2020-08-22T09:58:27Z</time>
      </trkpt>
      <trkpt lat="47.10007" lon="6.17972">
        <ele>352.714508</ele>
        <time>2020-08-22T09:58:51Z</time>
      </trkpt>
      <trkpt lat="47.09921" lon="6.17922">
        <ele>351.18631</ele>
        <time>2020-08-22T09:59:12Z</time>
      </trkpt>
      <trkpt lat="47.09761" lon="6.17857">
        <ele>341.501556</ele>
        <time>2020-08-22T09:59:51Z</time>
      </trkpt>
      <trkpt lat="47.09687" lon="6.17845">
        <ele>340.269531</ele>
        <time>2020-08-22T10:00:08Z</time>
      </trkpt>
      <trkpt lat="47.09599" lon="6.17616">
        <ele>335.60376</ele>
        <time>2020-08-22T10:00:50Z</time>
      </trkpt>
      <trkpt lat="47.09639" lon="6.17499">
        <ele>340.130249</ele>
        <time>2020-08-22T10:01:11Z</time>
      </trkpt>
      <trkpt lat="47.09683" lon="6.17269">
        <ele>342.86499</ele>
        <time>2020-08-22T10:01:49Z</time>
      </trkpt>
      <trkpt lat="47.09737" lon="6.1713">
        <ele>345.361572</ele>
        <time>2020-08-22T10:02:14Z</time>
      </trkpt>
      <trkpt lat="47.0979" lon="6.17053">
        <ele>351.282745</ele>
        <time>2020-08-22T10:02:32Z</time>
      </trkpt>
      <trkpt lat="47.09878" lon="6.16851">
        <ele>347.463654</ele>
        <time>2020-08-22T10:03:10Z</time>
      </trkpt>
      <trkpt lat="47.09996" lon="6.16748">
        <ele>345.838287</ele>
        <time>2020-08-22T10:03:42Z</time>
      </trkpt>
      <trkpt lat="47.10124" lon="6.16637">
        <ele>341.570099</ele>
        <time>2020-08-22T10:04:17Z</time>
      </trkpt>
      <trkpt lat="47.10204" lon="6.16585">
        <ele>341.558136</ele>
        <time>2020-08-22T10:04:37Z</time>
      </trkpt>
      <trkpt lat="47.10284" lon="6.16525">
        <ele>339.815552</ele>
        <time>2020-08-22T10:04:58Z</time>
      </trkpt>
      <trkpt lat="47.10334" lon="6.16476">
        <ele>337.420013</ele>
        <time>2020-08-22T10:05:12Z</time>
      </trkpt>
      <trkpt lat="47.10389" lon="6.1638">
        <ele>335.326752</ele>
        <time>2020-08-22T10:05:32Z</time>
      </trkpt>
      <trkpt lat="47.10456" lon="6.16138">
        <ele>335.319244</ele>
        <time>2020-08-22T10:06:14Z</time>
      </trkpt>
      <trkpt lat="47.10422" lon="6.16071">
        <ele>330.652954</ele>
        <time>2020-08-22T10:06:27Z</time>
      </trkpt>
      <trkpt lat="47.10397" lon="6.16028">
        <ele>330.788757</ele>
        <time>2020-08-22T10:06:36Z</time>
      </trkpt>
      <trkpt lat="47.10368" lon="6.15985">
        <ele>334.138794</ele>
        <time>2020-08-22T10:06:45Z</time>
      </trkpt>
      <trkpt lat="47.10357" lon="6.15951">
        <ele>336.545563</ele>
        <time>2020-08-22T10:06:51Z</time>
      </trkpt>
      <trkpt lat="47.10343" lon="6.15994">
        <ele>335.358337</ele>
        <time>2020-08-22T10:06:59Z</time>
      </trkpt>
      <trkpt lat="47.10323" lon="6.16017">
        <ele>335.674805</ele>
        <time>2020-08-22T10:07:05Z</time>
      </trkpt>
      <trkpt lat="47.10226" lon="6.1612">
        <ele>335.936707</ele>
        <time>2020-08-22T10:07:33Z</time>
      </trkpt>
      <trkpt lat="47.10218" lon="6.16132">
        <ele>335.839386</ele>
        <time>2020-08-22T10:07:36Z</time>
      </trkpt>
      <trkpt lat="47.1019" lon="6.16123">
        <ele>337.243744</ele>
        <time>2020-08-22T10:07:42Z</time>
      </trkpt>
      <trkpt lat="47.10172" lon="6.16117">
        <ele>338.07901</ele>
        <time>2020-08-22T07:45:12Z</time>
      </trkpt>
      <trkpt lat="47.10143" lon="6.16116">
        <ele>338.76001</ele>
        <time>2020-08-22T07:45:19Z</time>
      </trkpt>
      <trkpt lat="47.10123" lon="6.16125">
        <ele>339.022156</ele>
        <time>2020-08-22T07:45:24Z</time>
      </trkpt>
      <trkpt lat="47.10138" lon="6.16156">
        <ele>338.22876</ele>
        <time>2020-08-22T07:45:30Z</time>
      </trkpt>
      <trkpt lat="47.10167" lon="6.16164">
        <ele>337.488739</ele>
        <time>2020-08-22T07:45:37Z</time>
      </trkpt>
      <trkpt lat="47.10176" lon="6.1618">
        <ele>336.846252</ele>
        <time>2020-08-22T07:45:40Z</time>
      </trkpt>
      <trkpt lat="47.1018" lon="6.16208">
        <ele>336.029999</ele>
        <time>2020-08-22T07:45:44Z</time>
      </trkpt>
      <trkpt lat="47.10168" lon="6.1623">
        <ele>335.837494</ele>
        <time>2020-08-22T07:45:49Z</time>
      </trkpt>
      <trkpt lat="47.10147" lon="6.16243">
        <ele>335.912506</ele>
        <time>2020-08-22T07:45:54Z</time>
      </trkpt>
      <trkpt lat="47.10119" lon="6.1624">
        <ele>336.562012</ele>
        <time>2020-08-22T07:46:01Z</time>
      </trkpt>
      <trkpt lat="47.10019" lon="6.16327">
        <ele>335.867493</ele>
        <time>2020-08-22T07:46:28Z</time>
      </trkpt>
      <trkpt lat="47.09476" lon="6.16877">
        <ele>338</ele>
        <time>2020-08-22T07:49:02Z</time>
      </trkpt>
      <trkpt lat="47.09385" lon="6.16787">
        <ele>340.285004</ele>
        <time>2020-08-22T07:49:28Z</time>
      </trkpt>
      <trkpt lat="47.09336" lon="6.16834">
        <ele>339.80249</ele>
        <time>2020-08-22T07:49:41Z</time>
      </trkpt>
      <trkpt lat="47.09269" lon="6.16916">
        <ele>339.394989</ele>
        <time>2020-08-22T07:50:02Z</time>
      </trkpt>
      <trkpt lat="47.09193" lon="6.17182">
        <ele>337.616913</ele>
        <time>2020-08-22T07:50:47Z</time>
      </trkpt>
      <trkpt lat="47.08924" lon="6.17643">
        <ele>341.090912</ele>
        <time>2020-08-22T07:52:24Z</time>
      </trkpt>
      <trkpt lat="47.08705" lon="6.18025">
        <ele>339.325256</ele>
        <time>2020-08-22T07:53:43Z</time>
      </trkpt>
      <trkpt lat="47.08251" lon="6.18317">
        <ele>342.230011</ele>
        <time>2020-08-22T07:55:39Z</time>
      </trkpt>
      <trkpt lat="47.08044" lon="6.18596">
        <ele>347.269135</ele>
        <time>2020-08-22T07:56:45Z</time>
      </trkpt>
      <trkpt lat="47.08139" lon="6.18778">
        <ele>340.431671</ele>
        <time>2020-08-22T07:57:21Z</time>
      </trkpt>
      <trkpt lat="47.08147" lon="6.18911">
        <ele>340.936462</ele>
        <time>2020-08-22T07:57:42Z</time>
      </trkpt>
      <trkpt lat="47.08164" lon="6.19015">
        <ele>341.657196</ele>
        <time>2020-08-22T07:57:59Z</time>
      </trkpt>
      <trkpt lat="47.08314" lon="6.19008">
        <ele>342.274994</ele>
        <time>2020-08-22T07:58:35Z</time>
      </trkpt>
      <trkpt lat="47.0841" lon="6.1904">
        <ele>349.299591</ele>
        <time>2020-08-22T07:58:58Z</time>
      </trkpt>
      <trkpt lat="47.08555" lon="6.18932">
        <ele>360.647552</ele>
        <time>2020-08-22T07:59:36Z</time>
      </trkpt>
      <trkpt lat="47.0872" lon="6.18813">
        <ele>365.88974</ele>
        <time>2020-08-22T08:00:18Z</time>
      </trkpt>
      <trkpt lat="47.08879" lon="6.18827">
        <ele>369.635864</ele>
        <time>2020-08-22T08:00:56Z</time>
      </trkpt>
      <trkpt lat="47.09027" lon="6.19102">
        <ele>376.299133</ele>
        <time>2020-08-22T08:01:51Z</time>
      </trkpt>
      <trkpt lat="47.09194" lon="6.19405">
        <ele>369.016235</ele>
        <time>2020-08-22T08:02:53Z</time>
      </trkpt>
      <trkpt lat="47.09353" lon="6.19527">
        <ele>379.072937</ele>
        <time>2020-08-22T08:03:35Z</time>
      </trkpt>
      <trkpt lat="47.09552" lon="6.19581">
        <ele>381.186737</ele>
        <time>2020-08-22T08:04:23Z</time>
      </trkpt>
      <trkpt lat="47.09646" lon="6.19542">
        <ele>393.973083</ele>
        <time>2020-08-22T08:04:45Z</time>
      </trkpt>
      <trkpt lat="47.09788" lon="6.19643">
        <ele>398.588623</ele>
        <time>2020-08-22T08:05:22Z</time>
      </trkpt>
      <trkpt lat="47.09965" lon="6.1965">
        <ele>414.281219</ele>
        <time>2020-08-22T08:06:04Z</time>
      </trkpt>
      <trkpt lat="47.10076" lon="6.19581">
        <ele>431.97995</ele>
        <time>2020-08-22T08:06:32Z</time>
      </trkpt>
      <trkpt lat="47.0997" lon="6.19563">
        <ele>443.877167</ele>
        <time>2020-08-22T08:06:57Z</time>
      </trkpt>
      <trkpt lat="47.09845" lon="6.19545">
        <ele>436.918121</ele>
        <time>2020-08-22T08:07:26Z</time>
      </trkpt>
      <trkpt lat="47.09808" lon="6.19484">
        <ele>440.058899</ele>
        <time>2020-08-22T08:07:39Z</time>
      </trkpt>
      <trkpt lat="47.09815" lon="6.19361">
        <ele>450.395813</ele>
        <time>2020-08-22T08:07:59Z</time>
      </trkpt>
      <trkpt lat="47.09842" lon="6.19199">
        <ele>455.784241</ele>
        <time>2020-08-22T08:08:25Z</time>
      </trkpt>
      <trkpt lat="47.09747" lon="6.19257">
        <ele>441.18692</ele>
        <time>2020-08-22T08:08:49Z</time>
      </trkpt>
      <trkpt lat="47.09665" lon="6.19307">
        <ele>463.684998</ele>
        <time>2020-08-22T08:09:10Z</time>
      </trkpt>
      <trkpt lat="47.09584" lon="6.19351">
        <ele>459.403992</ele>
        <time>2020-08-22T08:09:30Z</time>
      </trkpt>
      <trkpt lat="47.09489" lon="6.19264">
        <ele>471.863647</ele>
        <time>2020-08-22T08:09:56Z</time>
      </trkpt>
      <trkpt lat="47.09422" lon="6.19145">
        <ele>476.610931</ele>
        <time>2020-08-22T08:10:21Z</time>
      </trkpt>
      <trkpt lat="47.09373" lon="6.18878">
        <ele>484.653381</ele>
        <time>2020-08-22T08:11:05Z</time>
      </trkpt>
      <trkpt lat="47.09349" lon="6.18694">
        <ele>483.933014</ele>
        <time>2020-08-22T08:11:34Z</time>
      </trkpt>
      <trkpt lat="47.0941" lon="6.18528">
        <ele>475.436401</ele>
        <time>2020-08-22T08:12:04Z</time>
      </trkpt>
      <trkpt lat="47.09557" lon="6.18495">
        <ele>462.391357</ele>
        <time>2020-08-22T08:12:39Z</time>
      </trkpt>
      <trkpt lat="47.09648" lon="6.18539">
        <ele>468.763062</ele>
        <time>2020-08-22T08:13:01Z</time>
      </trkpt>
      <trkpt lat="47.09702" lon="6.1854">
        <ele>469.633392</ele>
        <time>2020-08-22T08:13:14Z</time>
      </trkpt>
      <trkpt lat="47.09772" lon="6.18591">
        <ele>484.859985</ele>
        <time>2020-08-22T08:13:32Z</time>
      </trkpt>
      <trkpt lat="47.09949" lon="6.18609">
        <ele>510.613007</ele>
        <time>2020-08-22T08:14:14Z</time>
      </trkpt>
      <trkpt lat="47.10041" lon="6.18679">
        <ele>521.51825</ele>
        <time>2020-08-22T08:14:38Z</time>
      </trkpt>
      <trkpt lat="47.10223" lon="6.18827">
        <ele>524.933167</ele>
        <time>2020-08-22T08:15:27Z</time>
      </trkpt>
      <trkpt lat="47.10321" lon="6.18854">
        <ele>519.455383</ele>
        <time>2020-08-22T08:15:50Z</time>
      </trkpt>
      <trkpt lat="47.10417" lon="6.18945">
        <ele>527.515503</ele>
        <time>2020-08-22T08:16:17Z</time>
      </trkpt>
      <trkpt lat="47.10506" lon="6.1897">
        <ele>523.996765</ele>
        <time>2020-08-22T08:16:38Z</time>
      </trkpt>
      <trkpt lat="47.10605" lon="6.19056">
        <ele>530.620605</ele>
        <time>2020-08-22T08:17:05Z</time>
      </trkpt>
      <trkpt lat="47.10665" lon="6.19163">
        <ele>535.972412</ele>
        <time>2020-08-22T08:17:27Z</time>
      </trkpt>
      <trkpt lat="47.10687" lon="6.19315">
        <ele>542.83844</ele>
        <time>2020-08-22T08:17:51Z</time>
      </trkpt>
      <trkpt lat="47.10705" lon="6.19433">
        <ele>541.901245</ele>
        <time>2020-08-22T08:18:11Z</time>
      </trkpt>
      <trkpt lat="47.10682" lon="6.19659">
        <ele>543.027161</ele>
        <time>2020-08-22T08:18:47Z</time>
      </trkpt>
      <trkpt lat="47.10686" lon="6.19904">
        <ele>534.431763</ele>
        <time>2020-08-22T08:19:26Z</time>
      </trkpt>
      <trkpt lat="47.10677" lon="6.20134">
        <ele>547.095215</ele>
        <time>2020-08-22T08:20:02Z</time>
      </trkpt>
      <trkpt lat="47.1055" lon="6.20264">
        <ele>560.145813</ele>
        <time>2020-08-22T08:20:39Z</time>
      </trkpt>
      <trkpt lat="47.10537" lon="6.20386">
        <ele>568.283264</ele>
        <time>2020-08-22T08:20:58Z</time>
      </trkpt>
      <trkpt lat="47.10547" lon="6.20534">
        <ele>578.0896</ele>
        <time>2020-08-22T08:21:22Z</time>
      </trkpt>
      <trkpt lat="47.10329" lon="6.21047">
        <ele>600.119995</ele>
        <time>2020-08-22T08:22:58Z</time>
      </trkpt>
      <trkpt lat="47.10341" lon="6.21296">
        <ele>600.07782</ele>
        <time>2020-08-22T08:23:38Z</time>
      </trkpt>
      <trkpt lat="47.10267" lon="6.21523">
        <ele>601.610474</ele>
        <time>2020-08-22T08:24:18Z</time>
      </trkpt>
      <trkpt lat="47.10267" lon="6.21635">
        <ele>600.531189</ele>
        <time>2020-08-22T08:24:35Z</time>
      </trkpt>
      <trkpt lat="47.10211" lon="6.21761">
        <ele>597.956116</ele>
        <time>2020-08-22T08:24:59Z</time>
      </trkpt>
      <trkpt lat="47.10466" lon="6.21949">
        <ele>594.058411</ele>
        <time>2020-08-22T08:26:06Z</time>
      </trkpt>
      <trkpt lat="47.10574" lon="6.22165">
        <ele>590.921509</ele>
        <time>2020-08-22T08:26:49Z</time>
      </trkpt>
      <trkpt lat="47.10759" lon="6.22299">
        <ele>594.196777</ele>
        <time>2020-08-22T08:27:37Z</time>
      </trkpt>
      <trkpt lat="47.10894" lon="6.22526">
        <ele>597</ele>
        <time>2020-08-22T08:28:25Z</time>
      </trkpt>
      <trkpt lat="47.10985" lon="6.22804">
        <ele>595.72998</ele>
        <time>2020-08-22T08:29:14Z</time>
      </trkpt>
      <trkpt lat="47.11029" lon="6.22981">
        <ele>594.681335</ele>
        <time>2020-08-22T08:29:44Z</time>
      </trkpt>
      <trkpt lat="47.10992" lon="6.23068">
        <ele>595.910767</ele>
        <time>2020-08-22T08:30:00Z</time>
      </trkpt>
      <trkpt lat="47.10876" lon="6.23093">
        <ele>595.717102</ele>
        <time>2020-08-22T08:30:27Z</time>
      </trkpt>
      <trkpt lat="47.10732" lon="6.23262">
        <ele>591.446838</ele>
        <time>2020-08-22T08:31:10Z</time>
      </trkpt>
      <trkpt lat="47.10711" lon="6.23296">
        <ele>592.737488</ele>
        <time>2020-08-22T08:31:18Z</time>
      </trkpt>
      <trkpt lat="47.10755" lon="6.23407">
        <ele>594.945007</ele>
        <time>2020-08-22T08:31:38Z</time>
      </trkpt>
      <trkpt lat="47.10795" lon="6.23569">
        <ele>597.76001</ele>
        <time>2020-08-22T08:32:05Z</time>
      </trkpt>
      <trkpt lat="47.10783" lon="6.23683">
        <ele>600.807129</ele>
        <time>2020-08-22T08:32:24Z</time>
      </trkpt>
      <trkpt lat="47.10749" lon="6.23786">
        <ele>603.916016</ele>
        <time>2020-08-22T08:32:42Z</time>
      </trkpt>
      <trkpt lat="47.10684" lon="6.2401">
        <ele>602.325012</ele>
        <time>2020-08-22T08:33:21Z</time>
      </trkpt>
      <trkpt lat="47.10649" lon="6.24159">
        <ele>602.140259</ele>
        <time>2020-08-22T08:33:46Z</time>
      </trkpt>
      <trkpt lat="47.10636" lon="6.24226">
        <ele>602.560669</ele>
        <time>2020-08-22T08:33:57Z</time>
      </trkpt>
      <trkpt lat="47.1056" lon="6.24215">
        <ele>602.159973</ele>
        <time>2020-08-22T08:34:15Z</time>
      </trkpt>
      <trkpt lat="47.10499" lon="6.24197">
        <ele>602.615967</ele>
        <time>2020-08-22T08:34:29Z</time>
      </trkpt>
      <trkpt lat="47.10422" lon="6.24224">
        <ele>603.633423</ele>
        <time>2020-08-22T08:34:48Z</time>
      </trkpt>
      <trkpt lat="47.10377" lon="6.2428">
        <ele>604.347473</ele>
        <time>2020-08-22T08:35:01Z</time>
      </trkpt>
      <trkpt lat="47.1032" lon="6.24313">
        <ele>604.911255</ele>
        <time>2020-08-22T08:35:16Z</time>
      </trkpt>
      <trkpt lat="47.10273" lon="6.24313">
        <ele>604.962524</ele>
        <time>2020-08-22T08:35:27Z</time>
      </trkpt>
      <trkpt lat="47.10221" lon="6.24364">
        <ele>606.587524</ele>
        <time>2020-08-22T08:35:41Z</time>
      </trkpt>
      <trkpt lat="47.10164" lon="6.24471">
        <ele>608.59845</ele>
        <time>2020-08-22T08:36:03Z</time>
      </trkpt>
      <trkpt lat="47.10094" lon="6.24566">
        <ele>610.273865</ele>
        <time>2020-08-22T08:36:25Z</time>
      </trkpt>
      <trkpt lat="47.10023" lon="6.24698">
        <ele>610.774841</ele>
        <time>2020-08-22T08:36:52Z</time>
      </trkpt>
      <trkpt lat="47.09995" lon="6.24767">
        <ele>613.804993</ele>
        <time>2020-08-22T08:37:05Z</time>
      </trkpt>
      <trkpt lat="47.0996" lon="6.24813">
        <ele>615.29303</ele>
        <time>2020-08-22T08:37:16Z</time>
      </trkpt>
      <trkpt lat="47.09918" lon="6.24849">
        <ele>615.365967</ele>
        <time>2020-08-22T08:37:27Z</time>
      </trkpt>
      <trkpt lat="47.09871" lon="6.24903">
        <ele>616.335632</ele>
        <time>2020-08-22T08:37:41Z</time>
      </trkpt>
      <trkpt lat="47.09845" lon="6.24938">
        <ele>617.49292</ele>
        <time>2020-08-22T08:37:49Z</time>
      </trkpt>
      <trkpt lat="47.09815" lon="6.24944">
        <ele>617.53064</ele>
        <time>2020-08-22T08:37:56Z</time>
      </trkpt>
      <trkpt lat="47.09776" lon="6.2497">
        <ele>620.42926</ele>
        <time>2020-08-22T08:38:06Z</time>
      </trkpt>
      <trkpt lat="47.09777" lon="6.24969">
        <ele>620.33905</ele>
        <time>2020-08-22T08:38:07Z</time>
      </trkpt>
      <trkpt lat="47.09765" lon="6.25021">
        <ele>624.393616</ele>
        <time>2020-08-22T08:38:15Z</time>
      </trkpt>
      <trkpt lat="47.09757" lon="6.25105">
        <ele>631.149048</ele>
        <time>2020-08-22T08:38:29Z</time>
      </trkpt>
      <trkpt lat="47.09767" lon="6.25182">
        <ele>638.028748</ele>
        <time>2020-08-22T08:38:41Z</time>
      </trkpt>
      <trkpt lat="47.09789" lon="6.25211">
        <ele>642.102478</ele>
        <time>2020-08-22T08:38:48Z</time>
      </trkpt>
      <trkpt lat="47.09813" lon="6.25226">
        <ele>645.48999</ele>
        <time>2020-08-22T08:38:54Z</time>
      </trkpt>
      <trkpt lat="47.09788" lon="6.25276">
        <ele>648.101501</ele>
        <time>2020-08-22T08:39:04Z</time>
      </trkpt>
      <trkpt lat="47.09756" lon="6.25355">
        <ele>652.678833</ele>
        <time>2020-08-22T08:39:19Z</time>
      </trkpt>
      <trkpt lat="47.09731" lon="6.25432">
        <ele>657.348755</ele>
        <time>2020-08-22T08:39:32Z</time>
      </trkpt>
      <trkpt lat="47.0971" lon="6.25506">
        <ele>662.756897</ele>
        <time>2020-08-22T08:39:45Z</time>
      </trkpt>
      <trkpt lat="47.09682" lon="6.25597">
        <ele>668.234985</ele>
        <time>2020-08-22T08:40:01Z</time>
      </trkpt>
      <trkpt lat="47.09661" lon="6.25692">
        <ele>672.989197</ele>
        <time>2020-08-22T08:40:17Z</time>
      </trkpt>
      <trkpt lat="47.09624" lon="6.25765">
        <ele>675.318298</ele>
        <time>2020-08-22T08:40:31Z</time>
      </trkpt>
      <trkpt lat="47.09579" lon="6.25825">
        <ele>676</ele>
        <time>2020-08-22T08:40:45Z</time>
      </trkpt>
      <trkpt lat="47.09535" lon="6.25867">
        <ele>676</ele>
        <time>2020-08-22T08:40:58Z</time>
      </trkpt>
      <trkpt lat="47.09472" lon="6.2594">
        <ele>675.351257</ele>
        <time>2020-08-22T08:41:16Z</time>
      </trkpt>
      <trkpt lat="47.09424" lon="6.26013">
        <ele>672.550415</ele>
        <time>2020-08-22T08:41:33Z</time>
      </trkpt>
      <trkpt lat="47.09363" lon="6.26072">
        <ele>671.774414</ele>
        <time>2020-08-22T08:41:50Z</time>
      </trkpt>
      <trkpt lat="47.09327" lon="6.2611">
        <ele>674.049133</ele>
        <time>2020-08-22T08:42:00Z</time>
      </trkpt>
      <trkpt lat="47.09299" lon="6.26147">
        <ele>677.057739</ele>
        <time>2020-08-22T08:42:09Z</time>
      </trkpt>
      <trkpt lat="47.09278" lon="6.26178">
        <ele>678.6875</ele>
        <time>2020-08-22T08:42:16Z</time>
      </trkpt>
      <trkpt lat="47.09253" lon="6.26216">
        <ele>679.89502</ele>
        <time>2020-08-22T08:42:24Z</time>
      </trkpt>
      <trkpt lat="47.09231" lon="6.26208">
        <ele>679.182007</ele>
        <time>2020-08-22T08:42:29Z</time>
      </trkpt>
      <trkpt lat="47.09207" lon="6.26205">
        <ele>678.170044</ele>
        <time>2020-08-22T08:42:35Z</time>
      </trkpt>
      <trkpt lat="47.09177" lon="6.2623">
        <ele>677.192139</ele>
        <time>2020-08-22T08:42:43Z</time>
      </trkpt>
      <trkpt lat="47.09136" lon="6.26283">
        <ele>676.464661</ele>
        <time>2020-08-22T08:42:56Z</time>
      </trkpt>
      <trkpt lat="47.09093" lon="6.26345">
        <ele>676.942017</ele>
        <time>2020-08-22T08:43:10Z</time>
      </trkpt>
      <trkpt lat="47.09058" lon="6.26418">
        <ele>679.682495</ele>
        <time>2020-08-22T08:43:24Z</time>
      </trkpt>
      <trkpt lat="47.09045" lon="6.26448">
        <ele>680.788879</ele>
        <time>2020-08-22T08:43:30Z</time>
      </trkpt>
      <trkpt lat="47.09019" lon="6.26502">
        <ele>682.578064</ele>
        <time>2020-08-22T08:43:40Z</time>
      </trkpt>
      <trkpt lat="47.08975" lon="6.26514">
        <ele>680.359985</ele>
        <time>2020-08-22T08:43:51Z</time>
      </trkpt>
      <trkpt lat="47.08905" lon="6.26596">
        <ele>678.314148</ele>
        <time>2020-08-22T08:44:12Z</time>
      </trkpt>
      <trkpt lat="47.08891" lon="6.2659">
        <ele>676.893982</ele>
        <time>2020-08-22T08:44:15Z</time>
      </trkpt>
      <trkpt lat="47.08859" lon="6.26488">
        <ele>668.88501</ele>
        <time>2020-08-22T08:44:33Z</time>
      </trkpt>
      <trkpt lat="47.08827" lon="6.26402">
        <ele>663.16748</ele>
        <time>2020-08-22T08:44:49Z</time>
      </trkpt>
      <trkpt lat="47.08825" lon="6.26291">
        <ele>660.539978</ele>
        <time>2020-08-22T08:45:06Z</time>
      </trkpt>
      <trkpt lat="47.08819" lon="6.26203">
        <ele>658.934998</ele>
        <time>2020-08-22T08:45:20Z</time>
      </trkpt>
      <trkpt lat="47.08813" lon="6.26168">
        <ele>657.067444</ele>
        <time>2020-08-22T08:45:26Z</time>
      </trkpt>
      <trkpt lat="47.08782" lon="6.26113">
        <ele>652.600403</ele>
        <time>2020-08-22T08:45:37Z</time>
      </trkpt>
      <trkpt lat="47.08766" lon="6.26092">
        <ele>651.15918</ele>
        <time>2020-08-22T08:45:42Z</time>
      </trkpt>
      <trkpt lat="47.08737" lon="6.26139">
        <ele>654.762512</ele>
        <time>2020-08-22T08:45:52Z</time>
      </trkpt>
      <trkpt lat="47.08676" lon="6.26142">
        <ele>655.325012</ele>
        <time>2020-08-22T08:46:07Z</time>
      </trkpt>
      <trkpt lat="47.08641" lon="6.26169">
        <ele>657.568726</ele>
        <time>2020-08-22T08:46:16Z</time>
      </trkpt>
      <trkpt lat="47.08593" lon="6.26253">
        <ele>661.383606</ele>
        <time>2020-08-22T08:46:33Z</time>
      </trkpt>
      <trkpt lat="47.08544" lon="6.26339">
        <ele>660.530029</ele>
        <time>2020-08-22T08:46:51Z</time>
      </trkpt>
      <trkpt lat="47.08508" lon="6.26456">
        <ele>658.914978</ele>
        <time>2020-08-22T08:47:12Z</time>
      </trkpt>
      <trkpt lat="47.08439" lon="6.26567">
        <ele>662.814636</ele>
        <time>2020-08-22T08:47:35Z</time>
      </trkpt>
      <trkpt lat="47.08389" lon="6.26479">
        <ele>660.455017</ele>
        <time>2020-08-22T08:47:54Z</time>
      </trkpt>
      <trkpt lat="47.08352" lon="6.26356">
        <ele>655.898743</ele>
        <time>2020-08-22T08:48:15Z</time>
      </trkpt>
      <trkpt lat="47.08339" lon="6.26238">
        <ele>650.950012</ele>
        <time>2020-08-22T08:48:34Z</time>
      </trkpt>
      <trkpt lat="47.08336" lon="6.26106">
        <ele>648.36438</ele>
        <time>2020-08-22T08:48:55Z</time>
      </trkpt>
      <trkpt lat="47.08318" lon="6.26048">
        <ele>647.4375</ele>
        <time>2020-08-22T08:49:05Z</time>
      </trkpt>
      <trkpt lat="47.08285" lon="6.26109">
        <ele>648.653931</ele>
        <time>2020-08-22T08:49:18Z</time>
      </trkpt>
      <trkpt lat="47.08255" lon="6.26157">
        <ele>649.486816</ele>
        <time>2020-08-22T08:49:28Z</time>
      </trkpt>
      <trkpt lat="47.0822" lon="6.26207">
        <ele>651.872498</ele>
        <time>2020-08-22T08:49:39Z</time>
      </trkpt>
      <trkpt lat="47.08185" lon="6.26257">
        <ele>654.549988</ele>
        <time>2020-08-22T08:49:51Z</time>
      </trkpt>
      <trkpt lat="47.08157" lon="6.26226">
        <ele>652.338745</ele>
        <time>2020-08-22T08:49:59Z</time>
      </trkpt>
      <trkpt lat="47.08152" lon="6.26191">
        <ele>651.092529</ele>
        <time>2020-08-22T08:50:05Z</time>
      </trkpt>
      <trkpt lat="47.08119" lon="6.26141">
        <ele>652.021362</ele>
        <time>2020-08-22T08:50:16Z</time>
      </trkpt>
      <trkpt lat="47.0808" lon="6.26083">
        <ele>652.929993</ele>
        <time>2020-08-22T08:50:29Z</time>
      </trkpt>
      <trkpt lat="47.08025" lon="6.26015">
        <ele>653.466248</ele>
        <time>2020-08-22T08:50:45Z</time>
      </trkpt>
      <trkpt lat="47.07963" lon="6.25921">
        <ele>653.61676</ele>
        <time>2020-08-22T08:51:06Z</time>
      </trkpt>
      <trkpt lat="47.07896" lon="6.25986">
        <ele>655.96814</ele>
        <time>2020-08-22T08:51:25Z</time>
      </trkpt>
      <trkpt lat="47.07827" lon="6.26069">
        <ele>657</ele>
        <time>2020-08-22T08:51:46Z</time>
      </trkpt>
      <trkpt lat="47.07741" lon="6.26128">
        <ele>657.424988</ele>
        <time>2020-08-22T08:52:08Z</time>
      </trkpt>
      <trkpt lat="47.07658" lon="6.26151">
        <ele>659.989075</ele>
        <time>2020-08-22T08:52:28Z</time>
      </trkpt>
      <trkpt lat="47.07577" lon="6.26215">
        <ele>661.244995</ele>
        <time>2020-08-22T08:52:49Z</time>
      </trkpt>
      <trkpt lat="47.07498" lon="6.26303">
        <ele>667.286621</ele>
        <time>2020-08-22T08:53:12Z</time>
      </trkpt>
      <trkpt lat="47.07418" lon="6.26391">
        <ele>668.503967</ele>
        <time>2020-08-22T08:53:36Z</time>
      </trkpt>
      <trkpt lat="47.0733" lon="6.26462">
        <ele>669.486267</ele>
        <time>2020-08-22T08:53:59Z</time>
      </trkpt>
      <trkpt lat="47.07235" lon="6.26532">
        <ele>673.330811</ele>
        <time>2020-08-22T08:54:24Z</time>
      </trkpt>
      <trkpt lat="47.0714" lon="6.26602">
        <ele>677.557495</ele>
        <time>2020-08-22T08:54:49Z</time>
      </trkpt>
      <trkpt lat="47.07037" lon="6.26667">
        <ele>681.243774</ele>
        <time>2020-08-22T08:55:15Z</time>
      </trkpt>
      <trkpt lat="47.06983" lon="6.26687">
        <ele>682.367371</ele>
        <time>2020-08-22T08:55:28Z</time>
      </trkpt>
      <trkpt lat="47.06919" lon="6.26661">
        <ele>684.173279</ele>
        <time>2020-08-22T08:55:44Z</time>
      </trkpt>
      <trkpt lat="47.06831" lon="6.26625">
        <ele>687.47998</ele>
        <time>2020-08-22T08:56:05Z</time>
      </trkpt>
      <trkpt lat="47.0678" lon="6.26593">
        <ele>688.766235</ele>
        <time>2020-08-22T08:56:18Z</time>
      </trkpt>
      <trkpt lat="47.06745" lon="6.26581">
        <ele>689.246155</ele>
        <time>2020-08-22T08:56:26Z</time>
      </trkpt>
      <trkpt lat="47.06657" lon="6.26494">
        <ele>690.234863</ele>
        <time>2020-08-22T08:56:51Z</time>
      </trkpt>
      <trkpt lat="47.06565" lon="6.26408">
        <ele>693.628906</ele>
        <time>2020-08-22T08:57:16Z</time>
      </trkpt>
      <trkpt lat="47.06515" lon="6.2635">
        <ele>696.504517</ele>
        <time>2020-08-22T08:57:31Z</time>
      </trkpt>
      <trkpt lat="47.06444" lon="6.26282">
        <ele>701.223938</ele>
        <time>2020-08-22T08:57:51Z</time>
      </trkpt>
      <trkpt lat="47.06376" lon="6.26235">
        <ele>706.585388</ele>
        <time>2020-08-22T08:58:09Z</time>
      </trkpt>
      <trkpt lat="47.06314" lon="6.26233">
        <ele>711.150024</ele>
        <time>2020-08-22T08:58:23Z</time>
      </trkpt>
      <trkpt lat="47.06255" lon="6.26239">
        <ele>716.796021</ele>
        <time>2020-08-22T08:58:37Z</time>
      </trkpt>
      <trkpt lat="47.06219" lon="6.26235">
        <ele>718.397522</ele>
        <time>2020-08-22T08:58:45Z</time>
      </trkpt>
      <trkpt lat="47.06181" lon="6.26273">
        <ele>718.452454</ele>
        <time>2020-08-22T08:58:56Z</time>
      </trkpt>
      <trkpt lat="47.0614" lon="6.26318">
        <ele>717.492981</ele>
        <time>2020-08-22T08:59:08Z</time>
      </trkpt>
      <trkpt lat="47.06097" lon="6.26332">
        <ele>707.480774</ele>
        <time>2020-08-22T08:59:18Z</time>
      </trkpt>
      <trkpt lat="47.06075" lon="6.26275">
        <ele>704.897888</ele>
        <time>2020-08-22T08:59:29Z</time>
      </trkpt>
      <trkpt lat="47.06046" lon="6.26192">
        <ele>705.345703</ele>
        <time>2020-08-22T08:59:44Z</time>
      </trkpt>
      <trkpt lat="47.06005" lon="6.26102">
        <ele>706.59259</ele>
        <time>2020-08-22T09:00:01Z</time>
      </trkpt>
      <trkpt lat="47.05963" lon="6.26012">
        <ele>703.130188</ele>
        <time>2020-08-22T09:00:18Z</time>
      </trkpt>
      <trkpt lat="47.05921" lon="6.25922">
        <ele>700.054688</ele>
        <time>2020-08-22T09:00:36Z</time>
      </trkpt>
      <trkpt lat="47.05886" lon="6.25852">
        <ele>702.457886</ele>
        <time>2020-08-22T09:00:49Z</time>
      </trkpt>
      <trkpt lat="47.05855" lon="6.25783">
        <ele>705.89502</ele>
        <time>2020-08-22T09:01:03Z</time>
      </trkpt>
      <trkpt lat="47.05833" lon="6.25737">
        <ele>706.035522</ele>
        <time>2020-08-22T09:01:12Z</time>
      </trkpt>
      <trkpt lat="47.058" lon="6.25719">
        <ele>697.186646</ele>
        <time>2020-08-22T09:01:20Z</time>
      </trkpt>
      <trkpt lat="47.05768" lon="6.25721">
        <ele>688.186523</ele>
        <time>2020-08-22T09:01:27Z</time>
      </trkpt>
      <trkpt lat="47.05729" lon="6.25731">
        <ele>676.513733</ele>
        <time>2020-08-22T09:01:36Z</time>
      </trkpt>
      <trkpt lat="47.05687" lon="6.2569">
        <ele>671.721558</ele>
        <time>2020-08-22T09:01:48Z</time>
      </trkpt>
      <trkpt lat="47.05641" lon="6.25587">
        <ele>674.048767</ele>
        <time>2020-08-22T09:02:08Z</time>
      </trkpt>
      <trkpt lat="47.05585" lon="6.25442">
        <ele>677.090393</ele>
        <time>2020-08-22T09:02:34Z</time>
      </trkpt>
      <trkpt lat="47.05557" lon="6.25355">
        <ele>672.125488</ele>
        <time>2020-08-22T09:02:50Z</time>
      </trkpt>
      <trkpt lat="47.05529" lon="6.25317">
        <ele>671.509705</ele>
        <time>2020-08-22T09:02:59Z</time>
      </trkpt>
      <trkpt lat="47.05486" lon="6.2523">
        <ele>673.474487</ele>
        <time>2020-08-22T09:03:16Z</time>
      </trkpt>
      <trkpt lat="47.05417" lon="6.25185">
        <ele>659.579834</ele>
        <time>2020-08-22T09:03:33Z</time>
      </trkpt>
      <trkpt lat="47.05343" lon="6.25136">
        <ele>637.530884</ele>
        <time>2020-08-22T09:03:52Z</time>
      </trkpt>
      <trkpt lat="47.05271" lon="6.25071">
        <ele>615.158569</ele>
        <time>2020-08-22T09:04:12Z</time>
      </trkpt>
      <trkpt lat="47.05221" lon="6.24989">
        <ele>591.325378</ele>
        <time>2020-08-22T09:04:30Z</time>
      </trkpt>
      <trkpt lat="47.05174" lon="6.24875">
        <ele>569.375977</ele>
        <time>2020-08-22T09:04:51Z</time>
      </trkpt>
      <trkpt lat="47.05113" lon="6.24768">
        <ele>544.26123</ele>
        <time>2020-08-22T09:05:13Z</time>
      </trkpt>
      <trkpt lat="47.05058" lon="6.24694">
        <ele>529.104126</ele>
        <time>2020-08-22T09:05:30Z</time>
      </trkpt>
      <trkpt lat="47.0507" lon="6.2477">
        <ele>514.465027</ele>
        <time>2020-08-22T09:05:43Z</time>
      </trkpt>
      <trkpt lat="47.05076" lon="6.24845">
        <ele>502.506287</ele>
        <time>2020-08-22T09:05:55Z</time>
      </trkpt>
      <trkpt lat="47.0508" lon="6.2487">
        <ele>500.819489</ele>
        <time>2020-08-22T09:05:59Z</time>
      </trkpt>
      <trkpt lat="47.05034" lon="6.248">
        <ele>488.168793</ele>
        <time>2020-08-22T09:06:14Z</time>
      </trkpt>
      <trkpt lat="47.04987" lon="6.24757">
        <ele>480.386047</ele>
        <time>2020-08-22T09:06:27Z</time>
      </trkpt>
      <trkpt lat="47.04939" lon="6.2475">
        <ele>475.561035</ele>
        <time>2020-08-22T09:06:39Z</time>
      </trkpt>
      <trkpt lat="47.04886" lon="6.24715">
        <ele>468.37442</ele>
        <time>2020-08-22T09:06:52Z</time>
      </trkpt>
      <trkpt lat="47.04829" lon="6.24704">
        <ele>460.991058</ele>
        <time>2020-08-22T09:07:06Z</time>
      </trkpt>
      <trkpt lat="47.0477" lon="6.24689">
        <ele>445.517395</ele>
        <time>2020-08-22T09:07:20Z</time>
      </trkpt>
      <trkpt lat="47.04745" lon="6.24681">
        <ele>441.871216</ele>
        <time>2020-08-22T09:07:25Z</time>
      </trkpt>
      <trkpt lat="47.04682" lon="6.24666">
        <ele>433.440002</ele>
        <time>2020-08-22T09:07:40Z</time>
      </trkpt>
      <trkpt lat="47.04631" lon="6.24679">
        <ele>421.442169</ele>
        <time>2020-08-22T09:07:52Z</time>
      </trkpt>
      <trkpt lat="47.04566" lon="6.2469">
        <ele>407.021759</ele>
        <time>2020-08-22T09:08:08Z</time>
      </trkpt>
      <trkpt lat="47.04518" lon="6.24694">
        <ele>397.190186</ele>
        <time>2020-08-22T09:08:19Z</time>
      </trkpt>
      <trkpt lat="47.04497" lon="6.24745">
        <ele>393.352722</ele>
        <time>2020-08-22T09:08:28Z</time>
      </trkpt>
      <trkpt lat="47.04487" lon="6.24783">
        <ele>390.393219</ele>
        <time>2020-08-22T09:08:35Z</time>
      </trkpt>
      <trkpt lat="47.04478" lon="6.2485">
        <ele>385.792267</ele>
        <time>2020-08-22T09:08:46Z</time>
      </trkpt>
      <trkpt lat="47.04465" lon="6.24914">
        <ele>383.802917</ele>
        <time>2020-08-22T09:08:56Z</time>
      </trkpt>
      <trkpt lat="47.04432" lon="6.2498">
        <ele>381.259247</ele>
        <time>2020-08-22T09:09:09Z</time>
      </trkpt>
      <trkpt lat="47.04387" lon="6.25038">
        <ele>376.811371</ele>
        <time>2020-08-22T09:09:23Z</time>
      </trkpt>
      <trkpt lat="47.04342" lon="6.25099">
        <ele>374.39563</ele>
        <time>2020-08-22T09:09:38Z</time>
      </trkpt>
      <trkpt lat="47.04316" lon="6.25101">
        <ele>370.361816</ele>
        <time>2020-08-22T09:09:44Z</time>
      </trkpt>
      <trkpt lat="47.0436" lon="6.25012">
        <ele>369.537109</ele>
        <time>2020-08-22T09:10:01Z</time>
      </trkpt>
      <trkpt lat="47.04335" lon="6.24948">
        <ele>376.154846</ele>
        <time>2020-08-22T09:10:13Z</time>
      </trkpt>
      <trkpt lat="47.04369" lon="6.2487">
        <ele>377.28125</ele>
        <time>2020-08-22T09:10:28Z</time>
      </trkpt>
      <trkpt lat="47.04383" lon="6.24748">
        <ele>375.724213</ele>
        <time>2020-08-22T09:10:48Z</time>
      </trkpt>
      <trkpt lat="47.04374" lon="6.24632">
        <ele>372.849609</ele>
        <time>2020-08-22T09:11:06Z</time>
      </trkpt>
      <trkpt lat="47.04374" lon="6.24532">
        <ele>368.171234</ele>
        <time>2020-08-22T09:11:22Z</time>
      </trkpt>
      <trkpt lat="47.04368" lon="6.24424">
        <ele>369.856995</ele>
        <time>2020-08-22T09:11:39Z</time>
      </trkpt>
      <trkpt lat="47.04374" lon="6.24346">
        <ele>374.182983</ele>
        <time>2020-08-22T09:11:52Z</time>
      </trkpt>
      <trkpt lat="47.04411" lon="6.2425">
        <ele>366.607788</ele>
        <time>2020-08-22T09:12:09Z</time>
      </trkpt>
      <trkpt lat="47.04422" lon="6.24135">
        <ele>369.664307</ele>
        <time>2020-08-22T09:12:28Z</time>
      </trkpt>
      <trkpt lat="47.04454" lon="6.24075">
        <ele>370.519592</ele>
        <time>2020-08-22T09:12:40Z</time>
      </trkpt>
      <trkpt lat="47.04494" lon="6.24046">
        <ele>369.491058</ele>
        <time>2020-08-22T09:12:50Z</time>
      </trkpt>
      <trkpt lat="47.04533" lon="6.24015">
        <ele>363.628601</ele>
        <time>2020-08-22T09:13:01Z</time>
      </trkpt>
      <trkpt lat="47.04544" lon="6.23985">
        <ele>360.068726</ele>
        <time>2020-08-22T09:13:06Z</time>
      </trkpt>
      <trkpt lat="47.04549" lon="6.23925">
        <ele>358.894989</ele>
        <time>2020-08-22T09:13:16Z</time>
      </trkpt>
      <trkpt lat="47.04547" lon="6.23871">
        <ele>359.41626</ele>
        <time>2020-08-22T09:13:24Z</time>
      </trkpt>
      <trkpt lat="47.04529" lon="6.23823">
        <ele>363.011993</ele>
        <time>2020-08-22T09:13:33Z</time>
      </trkpt>
      <trkpt lat="47.04507" lon="6.23787">
        <ele>363.137939</ele>
        <time>2020-08-22T09:13:41Z</time>
      </trkpt>
      <trkpt lat="47.04515" lon="6.2377">
        <ele>360.72641</ele>
        <time>2020-08-22T09:13:44Z</time>
      </trkpt>
      <trkpt lat="47.04543" lon="6.23813">
        <ele>360.267059</ele>
        <time>2020-08-22T09:13:53Z</time>
      </trkpt>
      <trkpt lat="47.04555" lon="6.23865">
        <ele>358.180206</ele>
        <time>2020-08-22T09:14:02Z</time>
      </trkpt>
      <trkpt lat="47.04577" lon="6.23914">
        <ele>357.065002</ele>
        <time>2020-08-22T09:14:12Z</time>
      </trkpt>
      <trkpt lat="47.04589" lon="6.23931">
        <ele>356.225006</ele>
        <time>2020-08-22T09:14:15Z</time>
      </trkpt>
      <trkpt lat="47.04618" lon="6.23831">
        <ele>356.161774</ele>
        <time>2020-08-22T09:14:33Z</time>
      </trkpt>
      <trkpt lat="47.04649" lon="6.2373">
        <ele>357.740631</ele>
        <time>2020-08-22T09:14:50Z</time>
      </trkpt>
      <trkpt lat="47.0469" lon="6.23669">
        <ele>357.850739</ele>
        <time>2020-08-22T09:15:04Z</time>
      </trkpt>
      <trkpt lat="47.04739" lon="6.23629">
        <ele>361.585999</ele>
        <time>2020-08-22T09:15:17Z</time>
      </trkpt>
      <trkpt lat="47.04805" lon="6.2364">
        <ele>364.737488</ele>
        <time>2020-08-22T09:15:33Z</time>
      </trkpt>
      <trkpt lat="47.04865" lon="6.23666">
        <ele>363.569305</ele>
        <time>2020-08-22T09:15:47Z</time>
      </trkpt>
      <trkpt lat="47.0491" lon="6.23652">
        <ele>362.035278</ele>
        <time>2020-08-22T09:15:58Z</time>
      </trkpt>
      <trkpt lat="47.04935" lon="6.23598">
        <ele>366.620392</ele>
        <time>2020-08-22T09:16:08Z</time>
      </trkpt>
      <trkpt lat="47.04939" lon="6.23536">
        <ele>366.563263</ele>
        <time>2020-08-22T09:16:18Z</time>
      </trkpt>
      <trkpt lat="47.0493" lon="6.23479">
        <ele>369.972321</ele>
        <time>2020-08-22T09:16:28Z</time>
      </trkpt>
      <trkpt lat="47.04968" lon="6.23367">
        <ele>374.41626</ele>
        <time>2020-08-22T09:16:47Z</time>
      </trkpt>
      <trkpt lat="47.05021" lon="6.2324">
        <ele>385.372284</ele>
        <time>2020-08-22T09:17:11Z</time>
      </trkpt>
      <trkpt lat="47.05089" lon="6.23129">
        <ele>386.933594</ele>
        <time>2020-08-22T09:17:35Z</time>
      </trkpt>
      <trkpt lat="47.05124" lon="6.23025">
        <ele>399.981567</ele>
        <time>2020-08-22T09:17:53Z</time>
      </trkpt>
      <trkpt lat="47.05185" lon="6.22972">
        <ele>411.3237</ele>
        <time>2020-08-22T09:18:10Z</time>
      </trkpt>
      <trkpt lat="47.05233" lon="6.22944">
        <ele>414.312317</ele>
        <time>2020-08-22T09:18:22Z</time>
      </trkpt>
      <trkpt lat="47.05263" lon="6.22895">
        <ele>415.207153</ele>
        <time>2020-08-22T09:18:32Z</time>
      </trkpt>
      <trkpt lat="47.05273" lon="6.22782">
        <ele>425.3125</ele>
        <time>2020-08-22T09:18:51Z</time>
      </trkpt>
      <trkpt lat="47.05311" lon="6.22738">
        <ele>424.483734</ele>
        <time>2020-08-22T09:19:02Z</time>
      </trkpt>
      <trkpt lat="47.05361" lon="6.22697">
        <ele>424.196869</ele>
        <time>2020-08-22T09:19:15Z</time>
      </trkpt>
      <trkpt lat="47.05392" lon="6.22662">
        <ele>423.292999</ele>
        <time>2020-08-22T09:19:24Z</time>
      </trkpt>
      <trkpt lat="47.05433" lon="6.22595">
        <ele>423.628418</ele>
        <time>2020-08-22T09:19:39Z</time>
      </trkpt>
      <trkpt lat="47.05469" lon="6.22519">
        <ele>432.283752</ele>
        <time>2020-08-22T09:19:53Z</time>
      </trkpt>
      <trkpt lat="47.05533" lon="6.22472">
        <ele>427.145386</ele>
        <time>2020-08-22T09:20:10Z</time>
      </trkpt>
      <trkpt lat="47.05585" lon="6.22438">
        <ele>424.107513</ele>
        <time>2020-08-22T09:20:23Z</time>
      </trkpt>
      <trkpt lat="47.05645" lon="6.22373">
        <ele>418.833984</ele>
        <time>2020-08-22T09:20:41Z</time>
      </trkpt>
      <trkpt lat="47.05725" lon="6.22296">
        <ele>407.659912</ele>
        <time>2020-08-22T09:21:03Z</time>
      </trkpt>
      <trkpt lat="47.05798" lon="6.22244">
        <ele>400.658112</ele>
        <time>2020-08-22T09:21:22Z</time>
      </trkpt>
      <trkpt lat="47.05871" lon="6.22222">
        <ele>395.03006</ele>
        <time>2020-08-22T09:21:40Z</time>
      </trkpt>
      <trkpt lat="47.05914" lon="6.22199">
        <ele>396.270966</ele>
        <time>2020-08-22T09:21:50Z</time>
      </trkpt>
      <trkpt lat="47.05974" lon="6.22128">
        <ele>398.886108</ele>
        <time>2020-08-22T09:22:08Z</time>
      </trkpt>
      <trkpt lat="47.06054" lon="6.22051">
        <ele>389.592255</ele>
        <time>2020-08-22T09:22:31Z</time>
      </trkpt>
      <trkpt lat="47.06117" lon="6.22008">
        <ele>382.65921</ele>
        <time>2020-08-22T09:22:47Z</time>
      </trkpt>
      <trkpt lat="47.06139" lon="6.21996">
        <ele>379.095795</ele>
        <time>2020-08-22T09:22:52Z</time>
      </trkpt>
      <trkpt lat="47.06166" lon="6.22001">
        <ele>373.984161</ele>
        <time>2020-08-22T09:22:59Z</time>
      </trkpt>
      <trkpt lat="47.06196" lon="6.21943">
        <ele>373.498077</ele>
        <time>2020-08-22T09:23:10Z</time>
      </trkpt>
      <trkpt lat="47.0624" lon="6.21874">
        <ele>371.236542</ele>
        <time>2020-08-22T09:23:25Z</time>
      </trkpt>
      <trkpt lat="47.06273" lon="6.21853">
        <ele>366.999573</ele>
        <time>2020-08-22T09:23:34Z</time>
      </trkpt>
      <trkpt lat="47.06276" lon="6.21877">
        <ele>364.995789</ele>
        <time>2020-08-22T09:23:38Z</time>
      </trkpt>
      <trkpt lat="47.06252" lon="6.21945">
        <ele>363.774445</ele>
        <time>2020-08-22T09:23:50Z</time>
      </trkpt>
      <trkpt lat="47.06264" lon="6.22013">
        <ele>359.779816</ele>
        <time>2020-08-22T09:24:01Z</time>
      </trkpt>
      <trkpt lat="47.0629" lon="6.22023">
        <ele>356.770111</ele>
        <time>2020-08-22T09:24:07Z</time>
      </trkpt>
      <trkpt lat="47.06301" lon="6.21909">
        <ele>358.806641</ele>
        <time>2020-08-22T09:24:26Z</time>
      </trkpt>
      <trkpt lat="47.06296" lon="6.21762">
        <ele>361.14624</ele>
        <time>2020-08-22T09:24:49Z</time>
      </trkpt>
      <trkpt lat="47.06296" lon="6.21654">
        <ele>358.865387</ele>
        <time>2020-08-22T09:25:06Z</time>
      </trkpt>
      <trkpt lat="47.06316" lon="6.2153">
        <ele>360.868622</ele>
        <time>2020-08-22T09:25:26Z</time>
      </trkpt>
      <trkpt lat="47.06354" lon="6.21395">
        <ele>354.937164</ele>
        <time>2020-08-22T09:25:50Z</time>
      </trkpt>
      <trkpt lat="47.06368" lon="6.21357">
        <ele>354.965363</ele>
        <time>2020-08-22T09:25:57Z</time>
      </trkpt>
      <trkpt lat="47.0636" lon="6.21344">
        <ele>356.533295</ele>
        <time>2020-08-22T09:25:59Z</time>
      </trkpt>
      <trkpt lat="47.06354" lon="6.21275">
        <ele>360.308594</ele>
        <time>2020-08-22T09:26:10Z</time>
      </trkpt>
      <trkpt lat="47.06352" lon="6.21131">
        <ele>369.291748</ele>
        <time>2020-08-22T09:26:33Z</time>
      </trkpt>
      <trkpt lat="47.06355" lon="6.2096">
        <ele>382.785309</ele>
        <time>2020-08-22T09:27:00Z</time>
      </trkpt>
      <trkpt lat="47.06369" lon="6.20789">
        <ele>399.0849</ele>
        <time>2020-08-22T09:27:28Z</time>
      </trkpt>
      <trkpt lat="47.06394" lon="6.2067">
        <ele>408.196442</ele>
        <time>2020-08-22T09:27:48Z</time>
      </trkpt>
      <trkpt lat="47.06417" lon="6.2056">
        <ele>414.89502</ele>
        <time>2020-08-22T09:28:06Z</time>
      </trkpt>
      <trkpt lat="47.06438" lon="6.20442">
        <ele>426.715271</ele>
        <time>2020-08-22T09:28:25Z</time>
      </trkpt>
      <trkpt lat="47.06406" lon="6.20332">
        <ele>444.502808</ele>
        <time>2020-08-22T09:28:44Z</time>
      </trkpt>
      <trkpt lat="47.06403" lon="6.20286">
        <ele>446.836548</ele>
        <time>2020-08-22T09:28:52Z</time>
      </trkpt>
      <trkpt lat="47.06372" lon="6.2025">
        <ele>448.965942</ele>
        <time>2020-08-22T09:29:01Z</time>
      </trkpt>
      <trkpt lat="47.0634" lon="6.20221">
        <ele>449.225616</ele>
        <time>2020-08-22T09:29:10Z</time>
      </trkpt>
      <trkpt lat="47.06281" lon="6.20189">
        <ele>442.530304</ele>
        <time>2020-08-22T09:29:24Z</time>
      </trkpt>
      <trkpt lat="47.06236" lon="6.20204">
        <ele>442.029877</ele>
        <time>2020-08-22T09:29:35Z</time>
      </trkpt>
      <trkpt lat="47.06171" lon="6.20198">
        <ele>438.443115</ele>
        <time>2020-08-22T09:29:50Z</time>
      </trkpt>
      <trkpt lat="47.06203" lon="6.2019">
        <ele>436.600769</ele>
        <time>2020-08-22T09:29:58Z</time>
      </trkpt>
      <trkpt lat="47.0624" lon="6.20175">
        <ele>434.371338</ele>
        <time>2020-08-22T09:30:07Z</time>
      </trkpt>
      <trkpt lat="47.06254" lon="6.20142">
        <ele>428.371185</ele>
        <time>2020-08-22T09:30:13Z</time>
      </trkpt>
      <trkpt lat="47.06299" lon="6.2009">
        <ele>423.896484</ele>
        <time>2020-08-22T09:30:27Z</time>
      </trkpt>
      <trkpt lat="47.06348" lon="6.20081">
        <ele>427.298859</ele>
        <time>2020-08-22T09:30:38Z</time>
      </trkpt>
      <trkpt lat="47.06402" lon="6.2008">
        <ele>426.383698</ele>
        <time>2020-08-22T09:30:51Z</time>
      </trkpt>
      <trkpt lat="47.06447" lon="6.20076">
        <ele>419.749786</ele>
        <time>2020-08-22T09:31:01Z</time>
      </trkpt>
      <trkpt lat="47.06486" lon="6.20084">
        <ele>415.139191</ele>
        <time>2020-08-22T09:31:10Z</time>
      </trkpt>
      <trkpt lat="47.06515" lon="6.20118">
        <ele>414.222137</ele>
        <time>2020-08-22T09:31:19Z</time>
      </trkpt>
      <trkpt lat="47.06498" lon="6.2006">
        <ele>403.287842</ele>
        <time>2020-08-22T09:31:29Z</time>
      </trkpt>
      <trkpt lat="47.06455" lon="6.20039">
        <ele>404.561005</ele>
        <time>2020-08-22T09:31:40Z</time>
      </trkpt>
      <trkpt lat="47.06349" lon="6.20002">
        <ele>397.523102</ele>
        <time>2020-08-22T09:32:05Z</time>
      </trkpt>
      <trkpt lat="47.06432" lon="6.19992">
        <ele>390.121246</ele>
        <time>2020-08-22T09:32:25Z</time>
      </trkpt>
      <trkpt lat="47.06518" lon="6.20011">
        <ele>383.178253</ele>
        <time>2020-08-22T09:32:45Z</time>
      </trkpt>
      <trkpt lat="47.06416" lon="6.19881">
        <ele>363.493042</ele>
        <time>2020-08-22T09:33:16Z</time>
      </trkpt>
      <trkpt lat="47.06451" lon="6.19875">
        <ele>361.901825</ele>
        <time>2020-08-22T09:33:25Z</time>
      </trkpt>
      <trkpt lat="47.06487" lon="6.19817">
        <ele>361.606537</ele>
        <time>2020-08-22T09:33:37Z</time>
      </trkpt>
      <trkpt lat="47.06492" lon="6.19756">
        <ele>367.168854</ele>
        <time>2020-08-22T09:33:47Z</time>
      </trkpt>
      <trkpt lat="47.06521" lon="6.19792">
        <ele>364.98819</ele>
        <time>2020-08-22T09:33:56Z</time>
      </trkpt>
      <trkpt lat="47.06639" lon="6.20011">
        <ele>355.276794</ele>
        <time>2020-08-22T09:34:40Z</time>
      </trkpt>
      <trkpt lat="47.06698" lon="6.20139">
        <ele>351.592285</ele>
        <time>2020-08-22T09:35:05Z</time>
      </trkpt>
      <trkpt lat="47.06701" lon="6.20245">
        <ele>354.144684</ele>
        <time>2020-08-22T09:35:22Z</time>
      </trkpt>
      <trkpt lat="47.06726" lon="6.204">
        <ele>358.73407</ele>
        <time>2020-08-22T09:35:47Z</time>
      </trkpt>
      <trkpt lat="47.06768" lon="6.20469">
        <ele>355.038208</ele>
        <time>2020-08-22T09:36:02Z</time>
      </trkpt>
      <trkpt lat="47.06748" lon="6.20538">
        <ele>353.0401</ele>
      </trkpt>
      <trkpt lat="47.06771" lon="6.20533">
        <ele>350.957794</ele>
      </trkpt>
      <trkpt lat="47.06802" lon="6.20518">
        <ele>349.559998</ele>
      </trkpt>
      <trkpt lat="47.06843" lon="6.20498">
        <ele>348.555542</ele>
      </trkpt>
    </trkseg>
  </trk>
</gpx>